Lambert, Montana
Current Conditions -  °F | °C
As of 2:35 PM on Friday 19 Dec 2014 (Local Time) from KSDY Reporting Station
Clear Clear  
Wind Chill: 41°   Ceiling: Unl
Heat Index: 41°   Visibility: 10mi
Dew Point: 28°   Wind: 0mph
Humidity: 61%   Direction: NA
Pressure: 29.91"   Gusts: NA
Location:  47.68°N, 104.62°W
Report Text: KSDY 192135Z AUTO 00000KT 10SM CLR 05/M02 A2991 RMK AO1
Loading
Personal Weather Stations






























Interactive Weather Map New forecast layout! Learn more

10-Day Weather Forecast

Advertisements
Track Severe Weather on mobile